createdAt,value
2022-10-05T00:01:41.744Z,73.99
2022-10-05T00:04:15.753Z,73.72
2022-10-05T00:06:47.706Z,74.28
2022-10-05T00:09:20.900Z,73.92
2022-10-05T00:11:47.716Z,74.03
2022-10-05T00:14:22.783Z,74.12
2022-10-05T00:16:49.625Z,74.29
2022-10-05T00:19:23.513Z,74.53
2022-10-05T00:21:50.080Z,74.29
2022-10-05T00:24:19.243Z,74.25
2022-10-05T00:26:46.399Z,74.38
2022-10-05T00:29:18.995Z,74.58
2022-10-05T00:31:45.668Z,74.81
2022-10-05T00:34:12.417Z,74.97
2022-10-05T00:36:39.496Z,75.64
2022-10-05T00:39:05.989Z,75.66
2022-10-05T00:41:42.741Z,75.50
2022-10-05T00:44:23.824Z,74.75
2022-10-05T00:47:28.265Z,74.68
2022-10-05T00:50:08.827Z,74.93
2022-10-05T00:52:44.171Z,74.86
2022-10-05T00:55:18.709Z,74.81
2022-10-05T00:58:04.988Z,74.33
2022-10-05T01:00:31.690Z,74.57
2022-10-05T01:02:59.694Z,75.18
2022-10-05T01:05:44.496Z,76.05
2022-10-05T01:08:35.743Z,76.11
2022-10-05T01:11:17.956Z,76.05
2022-10-05T01:13:44.421Z,75.97
2022-10-05T01:16:14.202Z,75.63
2022-10-05T01:19:07.509Z,75.34
2022-10-05T01:21:38.900Z,74.84
2022-10-05T01:24:22.809Z,75.05
2022-10-05T01:26:53.747Z,74.75
2022-10-05T01:29:32.416Z,74.92
2022-10-05T01:32:07.737Z,75.60
2022-10-05T01:34:41.783Z,75.66
2022-10-05T01:37:23.881Z,75.17
2022-10-05T01:40:02.817Z,75.23
2022-10-05T01:42:50.610Z,75.02
2022-10-05T01:45:44.247Z,74.61
2022-10-05T01:48:20.044Z,74.82
2022-10-05T01:51:00.018Z,75.09
2022-10-05T01:53:45.265Z,75.57
2022-10-05T01:56:14.863Z,75.74
2022-10-05T01:59:03.241Z,75.86
2022-10-05T02:01:36.216Z,75.98
2022-10-05T02:04:59.835Z,75.17
2022-10-05T02:07:21.749Z,74.51
2022-10-05T02:09:59.773Z,74.70
2022-10-05T02:12:29.271Z,75.24
2022-10-05T02:14:58.685Z,74.95
2022-10-05T02:17:29.779Z,74.91
2022-10-05T02:19:59.359Z,75.44
2022-10-05T02:22:32.554Z,75.77
2022-10-05T02:25:01.072Z,75.71
2022-10-05T02:27:29.735Z,75.87
2022-10-05T02:29:58.912Z,76.20
2022-10-05T02:32:27.371Z,76.77
2022-10-05T02:34:53.958Z,76.96
2022-10-05T02:37:57.441Z,76.76
2022-10-05T02:40:41.753Z,76.41
2022-10-05T02:43:14.659Z,76.46
2022-10-05T02:46:09.868Z,75.90
2022-10-05T02:49:13.945Z,76.45
2022-10-05T02:51:51.762Z,76.47
2022-10-05T02:54:32.585Z,76.51
2022-10-05T02:57:16.764Z,75.85
2022-10-05T03:06:03.101Z,76.42
2022-10-05T03:08:47.374Z,76.80
2022-10-05T03:11:29.644Z,76.85
2022-10-05T03:14:29.025Z,76.89
2022-10-05T03:17:25.109Z,76.60
2022-10-05T03:20:13.920Z,76.40
2022-10-05T03:23:10.516Z,76.41
2022-10-05T03:26:02.653Z,76.53
2022-10-05T03:28:48.022Z,76.62
2022-10-05T03:31:26.669Z,76.85
2022-10-05T03:33:59.773Z,76.75
2022-10-05T03:36:39.013Z,76.60
2022-10-05T03:39:19.405Z,76.55
2022-10-05T03:41:51.633Z,76.44
2022-10-05T03:44:43.627Z,76.35
2022-10-05T03:47:28.834Z,76.29
2022-10-05T03:50:22.864Z,76.48
2022-10-05T03:52:51.725Z,76.48
2022-10-05T03:55:36.388Z,76.26
2022-10-05T03:58:10.679Z,76.16
2022-10-05T04:00:37.512Z,76.24
2022-10-05T04:03:18.923Z,76.38
2022-10-05T04:05:57.403Z,76.45
2022-10-05T04:08:47.877Z,76.53
2022-10-05T04:11:18.609Z,76.28
2022-10-05T04:13:54.768Z,76.22
2022-10-05T04:16:23.680Z,76.61
2022-10-05T04:18:59.084Z,76.74
2022-10-05T04:21:37.255Z,76.78
2022-10-05T04:24:07.004Z,76.63
2022-10-05T04:26:51.253Z,76.92
2022-10-05T04:29:46.150Z,76.71
2022-10-05T04:32:16.080Z,76.80
2022-10-05T04:34:45.372Z,76.72
2022-10-05T04:37:22.162Z,76.81
2022-10-05T04:39:59.043Z,76.96
2022-10-05T04:42:38.416Z,76.78
2022-10-05T04:45:09.714Z,76.89
2022-10-05T04:47:58.950Z,76.90
2022-10-05T04:50:54.829Z,76.89
2022-10-05T04:53:50.095Z,76.74
2022-10-05T04:56:20.159Z,76.87
2022-10-05T04:59:03.852Z,76.84
2022-10-05T05:01:39.927Z,76.80
2022-10-05T05:04:25.796Z,76.61
2022-10-05T05:07:28.889Z,76.64
2022-10-05T05:10:02.409Z,76.64
2022-10-05T05:12:49.607Z,76.63
2022-10-05T05:15:28.328Z,76.69
2022-10-05T05:18:10.325Z,76.12
2022-10-05T05:20:41.748Z,75.91
2022-10-05T05:23:27.154Z,75.65
2022-10-05T05:26:07.515Z,75.19
2022-10-05T05:28:54.666Z,74.54
2022-10-05T05:31:30.980Z,74.02
2022-10-05T05:34:04.117Z,73.45
2022-10-05T05:37:00.881Z,72.91
2022-10-05T05:40:14.208Z,72.60
2022-10-05T05:42:55.956Z,72.49
2022-10-05T05:45:48.777Z,71.95
2022-10-05T05:48:47.099Z,70.94
2022-10-05T05:51:22.403Z,69.92
2022-10-05T05:53:55.519Z,68.47
2022-10-05T05:56:30.646Z,67.43
2022-10-05T05:59:02.671Z,66.27
2022-10-05T06:01:46.163Z,65.48
2022-10-05T06:04:25.215Z,63.77
2022-10-05T06:06:53.212Z,61.66
2022-10-05T06:09:47.835Z,60.66
2022-10-05T06:12:32.877Z,60.81
2022-10-05T06:15:05.495Z,59.39
2022-10-05T06:17:41.584Z,59.39
2022-10-05T06:20:28.977Z,58.27
2022-10-05T06:22:56.007Z,55.99
2022-10-05T06:25:57.406Z,53.51
2022-10-05T06:28:25.114Z,51.63
2022-10-05T06:31:04.377Z,50.97
2022-10-05T06:33:52.005Z,48.24
2022-10-05T06:36:22.234Z,47.42
2022-10-05T06:39:07.935Z,45.84
2022-10-05T06:41:42.712Z,44.26
2022-10-05T06:44:23.441Z,42.37
2022-10-05T06:47:23.568Z,39.63
2022-10-05T06:49:56.842Z,40.08
2022-10-05T06:52:29.563Z,36.77
2022-10-05T06:54:58.846Z,35.68
2022-10-05T06:57:52.902Z,35.80
2022-10-05T07:00:24.971Z,35.19
2022-10-05T07:03:18.667Z,34.38
2022-10-05T07:05:54.566Z,35.63
2022-10-05T07:08:34.066Z,35.38
2022-10-05T07:11:18.912Z,34.31
2022-10-05T07:14:06.796Z,33.91
2022-10-05T07:16:47.161Z,34.55
2022-10-05T07:19:22.265Z,34.82
2022-10-05T07:21:58.165Z,35.21
2022-10-05T07:24:29.368Z,36.14
2022-10-05T07:30:56.436Z,36.85
2022-10-05T07:33:29.038Z,36.40
2022-10-05T07:36:20.316Z,35.83
2022-10-05T07:38:54.773Z,35.21
2022-10-05T07:41:47.953Z,34.83
2022-10-05T07:44:29.631Z,33.33
2022-10-05T07:47:04.913Z,33.82
2022-10-05T07:50:09.953Z,32.65
2022-10-05T07:52:37.972Z,32.99
2022-10-05T07:55:06.902Z,31.30
2022-10-05T07:57:58.672Z,31.07
2022-10-05T08:00:26.338Z,30.98
2022-10-05T08:02:58.646Z,31.44
2022-10-05T08:05:43.676Z,31.79
2022-10-05T08:08:15.505Z,31.60
2022-10-05T08:11:14.884Z,31.67
2022-10-05T08:13:56.579Z,32.49
2022-10-05T08:16:23.495Z,32.79
2022-10-05T08:19:06.746Z,32.15
2022-10-05T08:21:35.496Z,32.49
2022-10-05T08:24:07.207Z,32.73
2022-10-05T08:26:36.335Z,33.77
2022-10-05T08:29:17.278Z,32.81
2022-10-05T08:31:46.349Z,33.95
2022-10-05T08:34:25.113Z,34.19
2022-10-05T08:37:03.820Z,33.80
2022-10-05T08:39:34.363Z,34.59
2022-10-05T08:42:10.339Z,34.60
2022-10-05T08:44:55.320Z,35.21
2022-10-05T08:47:28.299Z,35.28
2022-10-05T08:50:04.305Z,35.92
2022-10-05T08:52:56.445Z,36.14
2022-10-05T08:55:43.811Z,36.44
2022-10-05T08:58:19.977Z,36.13
2022-10-05T09:00:57.721Z,37.04
2022-10-05T09:03:51.614Z,37.19
2022-10-05T09:06:22.607Z,37.40
2022-10-05T09:08:55.695Z,37.86
2022-10-05T09:11:38.974Z,38.35
2022-10-05T09:14:11.774Z,38.90
2022-10-05T09:16:59.308Z,39.15
2022-10-05T09:19:47.333Z,39.24
2022-10-05T09:22:38.622Z,39.23
2022-10-05T09:25:30.764Z,39.29
2022-10-05T09:28:21.927Z,39.75
2022-10-05T09:31:20.458Z,40.02
2022-10-05T09:34:26.006Z,40.29
2022-10-05T09:37:11.855Z,40.35
2022-10-05T09:40:04.041Z,40.54
2022-10-05T09:42:34.274Z,40.60
2022-10-05T09:45:45.881Z,40.48
2022-10-05T09:48:34.191Z,40.46
2022-10-05T09:51:00.762Z,40.52
2022-10-05T09:53:42.574Z,40.13
2022-10-05T09:56:21.266Z,40.43
2022-10-05T09:59:25.666Z,40.50
2022-10-05T10:02:30.912Z,40.50
2022-10-05T10:05:16.627Z,40.79
2022-10-05T10:08:00.820Z,40.94
2022-10-05T10:10:52.996Z,40.81
2022-10-05T10:13:31.722Z,40.26
2022-10-05T10:16:16.987Z,40.36
2022-10-05T10:19:06.794Z,40.15
2022-10-05T10:21:54.828Z,40.55
2022-10-05T10:24:26.138Z,40.39
2022-10-05T10:27:05.726Z,39.92
2022-10-05T10:29:33.982Z,40.01
2022-10-05T10:32:21.656Z,39.89
2022-10-05T10:35:00.499Z,40.03
2022-10-05T10:38:12.480Z,39.97
2022-10-05T10:41:02.703Z,40.29
2022-10-05T10:43:29.815Z,40.34
2022-10-05T10:46:00.027Z,40.63
2022-10-05T10:48:29.543Z,40.72
2022-10-05T10:51:14.612Z,40.48
2022-10-05T10:54:05.416Z,40.75
2022-10-05T10:56:55.505Z,40.82
2022-10-05T11:00:20.881Z,40.76
2022-10-05T11:02:54.907Z,40.91
2022-10-05T11:05:52.265Z,41.04
2022-10-05T11:08:37.894Z,40.82
2022-10-05T11:11:29.567Z,41.21
2022-10-05T11:14:04.997Z,41.50
2022-10-05T11:16:43.675Z,41.56
2022-10-05T11:19:10.441Z,41.80
2022-10-05T11:22:00.280Z,42.15
2022-10-05T11:24:50.589Z,42.26
2022-10-05T11:27:41.398Z,42.46
2022-10-05T11:30:40.306Z,42.58
2022-10-05T11:33:34.646Z,42.75
2022-10-05T11:36:26.238Z,42.87
2022-10-05T11:39:05.482Z,43.12
2022-10-05T11:42:09.431Z,43.11
2022-10-05T11:44:54.642Z,43.03
2022-10-05T11:47:42.175Z,43.12
2022-10-05T11:50:26.905Z,43.10
2022-10-05T11:53:00.116Z,43.05
2022-10-05T11:55:27.267Z,42.91
2022-10-05T11:58:15.962Z,43.13
2022-10-05T12:00:44.289Z,43.34
2022-10-05T12:03:35.442Z,43.37
2022-10-05T12:06:25.732Z,43.39
2022-10-05T12:09:14.466Z,43.72
2022-10-05T12:12:23.163Z,44.00
2022-10-05T12:14:54.665Z,43.71
2022-10-05T12:17:21.258Z,43.64
2022-10-05T12:20:28.255Z,43.72
2022-10-05T12:23:00.743Z,43.88
2022-10-05T12:25:33.131Z,44.22
2022-10-05T12:28:05.063Z,44.33
2022-10-05T12:30:58.204Z,44.25
2022-10-05T12:33:26.551Z,43.96
2022-10-05T12:35:56.128Z,44.10
2022-10-05T12:38:30.788Z,44.06
2022-10-05T12:41:04.526Z,44.27
2022-10-05T12:43:54.385Z,44.13
2022-10-05T12:46:29.906Z,43.97
2022-10-05T12:49:06.978Z,43.95
2022-10-05T12:51:58.533Z,43.95
2022-10-05T12:54:47.704Z,43.93
2022-10-05T12:57:32.665Z,44.13
2022-10-05T13:00:01.747Z,44.04
2022-10-05T13:02:42.483Z,44.17
2022-10-05T13:05:09.538Z,44.14
2022-10-05T13:07:54.774Z,44.17
2022-10-05T13:10:39.415Z,44.25
2022-10-05T13:13:34.231Z,44.51
2022-10-05T13:16:17.223Z,44.45
2022-10-05T13:19:15.563Z,44.61
2022-10-05T13:22:10.274Z,44.71
2022-10-05T13:24:59.515Z,44.87
2022-10-05T13:27:47.266Z,44.85
2022-10-05T13:30:19.150Z,45.04
2022-10-05T13:32:47.953Z,45.30
2022-10-05T13:35:53.406Z,45.49
2022-10-05T13:38:34.171Z,45.51
2022-10-05T13:41:14.782Z,45.64
2022-10-05T13:43:51.482Z,45.60
2022-10-05T13:46:23.732Z,45.80
2022-10-05T13:49:09.093Z,46.21
2022-10-05T13:51:41.108Z,46.02
2022-10-05T13:54:45.160Z,45.99
2022-10-05T13:57:11.885Z,46.09
2022-10-05T13:59:51.218Z,46.11
2022-10-05T14:02:40.147Z,46.26
2022-10-05T14:05:29.795Z,46.34
2022-10-05T14:08:02.475Z,46.44
2022-10-05T14:10:38.590Z,46.55
2022-10-05T14:13:32.367Z,46.54
2022-10-05T14:15:59.803Z,46.46
2022-10-05T14:18:28.032Z,46.54
2022-10-05T14:21:18.822Z,46.61
2022-10-05T14:23:45.367Z,46.80
2022-10-05T14:26:27.526Z,47.00
2022-10-05T14:29:19.482Z,47.03
2022-10-05T14:31:58.476Z,47.26
2022-10-05T14:34:35.539Z,47.53
2022-10-05T14:37:23.398Z,47.68
2022-10-05T14:39:52.220Z,47.51
2022-10-05T14:42:27.809Z,47.71
2022-10-05T14:45:11.920Z,47.77
2022-10-05T14:47:54.402Z,47.63
2022-10-05T14:50:26.213Z,47.74
2022-10-05T14:53:22.571Z,47.71
2022-10-05T14:55:55.917Z,47.95
2022-10-05T14:58:24.340Z,48.09
2022-10-05T15:00:56.955Z,48.04
2022-10-05T15:03:41.770Z,48.35
2022-10-05T15:06:16.262Z,48.48
2022-10-05T15:09:17.652Z,48.86
2022-10-05T15:11:47.132Z,48.88
2022-10-05T15:14:25.445Z,49.12
2022-10-05T15:16:54.044Z,49.21
2022-10-05T15:19:27.873Z,49.37
2022-10-05T15:22:19.541Z,49.60
2022-10-05T15:24:53.232Z,49.82
2022-10-05T15:27:36.474Z,50.33
2022-10-05T15:30:13.997Z,50.43
2022-10-05T15:33:08.729Z,50.60
2022-10-05T15:35:44.607Z,50.77
2022-10-05T15:38:34.258Z,50.78
2022-10-05T15:41:20.619Z,50.98
2022-10-05T15:44:13.451Z,51.11
2022-10-05T15:47:02.834Z,51.29
2022-10-05T15:49:37.081Z,51.49
2022-10-05T15:52:12.176Z,51.94
2022-10-05T15:55:04.804Z,52.19
2022-10-05T15:57:53.643Z,52.42
2022-10-05T16:00:21.047Z,52.60
2022-10-05T16:03:02.662Z,53.20
2022-10-05T16:05:56.648Z,53.12
2022-10-05T16:08:51.100Z,53.23
2022-10-05T16:11:42.539Z,53.06
2022-10-05T16:14:43.521Z,53.67
2022-10-05T16:17:47.324Z,54.19
2022-10-05T16:20:23.007Z,54.45
2022-10-05T16:22:52.131Z,54.92
2022-10-05T16:25:34.948Z,55.35
2022-10-05T16:28:20.461Z,55.52
2022-10-05T16:31:03.269Z,55.59
2022-10-05T16:33:48.007Z,55.63
2022-10-05T16:36:26.712Z,55.84
2022-10-05T16:39:01.330Z,56.08
2022-10-05T16:41:35.105Z,56.52
2022-10-05T16:44:13.466Z,56.68
2022-10-05T16:46:47.098Z,56.80
2022-10-05T16:49:38.537Z,56.90
2022-10-05T16:52:07.224Z,57.20
2022-10-05T16:54:47.713Z,57.40
2022-10-05T16:57:27.543Z,57.73
2022-10-05T17:00:19.472Z,58.03
2022-10-05T17:02:55.403Z,58.33
2022-10-05T17:06:07.851Z,58.60
2022-10-05T17:09:19.083Z,58.32
2022-10-05T17:12:10.663Z,58.46
2022-10-05T17:14:59.292Z,59.13
2022-10-05T17:17:51.997Z,59.30
2022-10-05T17:20:42.767Z,59.29
2022-10-05T17:23:31.244Z,59.71
2022-10-05T17:26:34.418Z,59.85
2022-10-05T17:29:32.161Z,59.63
2022-10-05T17:32:12.235Z,60.06
2022-10-05T17:34:39.995Z,60.58
2022-10-05T17:37:36.012Z,60.98
2022-10-05T17:40:28.584Z,60.95
2022-10-05T17:43:17.310Z,60.97
2022-10-05T17:45:43.807Z,60.77
2022-10-05T17:48:13.337Z,61.54
2022-10-05T17:51:05.490Z,61.94
2022-10-05T17:54:07.409Z,61.55
2022-10-05T17:56:48.890Z,61.52
2022-10-05T17:59:46.354Z,62.05
2022-10-05T18:02:43.455Z,61.89
2022-10-05T18:05:12.197Z,62.24
2022-10-05T18:07:39.562Z,62.73
2022-10-05T18:10:12.204Z,62.68
2022-10-05T18:12:42.514Z,62.73
2022-10-05T18:15:24.477Z,62.90
2022-10-05T18:17:51.560Z,62.93
2022-10-05T18:20:24.000Z,62.92
2022-10-05T18:22:53.348Z,62.58
2022-10-05T18:25:27.206Z,62.42
2022-10-05T18:28:09.117Z,62.75
2022-10-05T18:31:05.929Z,62.52
2022-10-05T18:33:54.689Z,62.61
2022-10-05T18:36:44.579Z,62.71
2022-10-05T18:39:15.394Z,62.63
2022-10-05T18:42:22.993Z,62.95
2022-10-05T18:44:51.734Z,62.60
2022-10-05T18:47:22.458Z,63.09
2022-10-05T18:49:51.838Z,63.22
2022-10-05T18:52:36.599Z,63.41
2022-10-05T18:55:24.829Z,63.24
2022-10-05T18:58:00.750Z,63.11
2022-10-05T19:00:40.994Z,63.09
2022-10-05T19:03:26.846Z,63.29
2022-10-05T19:06:13.043Z,63.22
2022-10-05T19:09:24.741Z,63.27
2022-10-05T19:12:12.215Z,63.29
2022-10-05T19:15:06.784Z,63.52
2022-10-05T19:17:52.189Z,63.22
2022-10-05T19:20:41.698Z,63.26
2022-10-05T19:23:16.872Z,63.45
2022-10-05T19:25:47.689Z,63.69
2022-10-05T19:28:29.716Z,63.94
2022-10-05T19:31:21.335Z,63.80
2022-10-05T19:34:10.746Z,63.94
2022-10-05T19:37:10.519Z,64.20
2022-10-05T19:39:46.433Z,64.17
2022-10-05T19:42:47.329Z,64.25
2022-10-05T19:45:27.224Z,64.32
2022-10-05T19:48:02.918Z,64.42
2022-10-05T19:50:30.934Z,64.43
2022-10-05T19:53:23.178Z,64.75
2022-10-05T19:55:49.854Z,64.83
2022-10-05T19:58:25.239Z,64.76
2022-10-05T20:00:58.648Z,64.63
2022-10-05T20:03:32.439Z,64.80
2022-10-05T20:06:06.003Z,64.98
2022-10-05T20:08:51.312Z,64.73
2022-10-05T20:11:19.566Z,64.42
2022-10-05T20:13:48.475Z,65.13
2022-10-05T20:16:33.814Z,65.04
2022-10-05T20:19:19.694Z,64.99
2022-10-05T20:21:46.203Z,65.06
2022-10-05T20:24:20.958Z,65.46
2022-10-05T20:27:16.542Z,65.68
2022-10-05T20:29:44.266Z,65.62
2022-10-05T20:32:12.292Z,65.85
2022-10-05T20:34:43.557Z,65.98
2022-10-05T20:37:11.642Z,66.01
2022-10-05T20:39:38.419Z,65.89
2022-10-05T20:42:05.273Z,66.12
2022-10-05T20:44:31.877Z,66.12
2022-10-05T20:46:58.723Z,66.35
2022-10-05T20:49:26.580Z,66.25
2022-10-05T20:51:55.685Z,66.28
2022-10-05T20:54:25.283Z,66.45
2022-10-05T20:56:52.386Z,66.46
2022-10-05T20:59:19.123Z,66.73
2022-10-05T21:01:48.137Z,66.65
2022-10-05T21:04:18.991Z,66.68
2022-10-05T21:06:45.954Z,66.76
2022-10-05T21:09:14.702Z,66.99
2022-10-05T21:11:45.177Z,67.11
2022-10-05T21:14:11.947Z,67.01
2022-10-05T21:16:40.923Z,67.26
2022-10-05T21:19:12.307Z,67.59
2022-10-05T21:21:40.170Z,67.60
2022-10-05T21:24:06.908Z,67.93
2022-10-05T21:26:33.838Z,67.74
2022-10-05T21:29:01.124Z,67.63
2022-10-05T21:31:28.276Z,68.04
2022-10-05T21:33:55.167Z,68.26
2022-10-05T21:36:24.578Z,68.09
2022-10-05T21:38:51.953Z,67.99
2022-10-05T21:41:18.982Z,68.03
2022-10-05T21:43:45.703Z,68.40
2022-10-05T21:46:14.592Z,68.52
2022-10-05T21:48:41.558Z,68.33
2022-10-05T21:51:08.777Z,68.26
2022-10-05T21:53:37.820Z,68.46
2022-10-05T21:56:05.684Z,68.71
2022-10-05T21:58:32.410Z,68.56
2022-10-05T22:00:58.905Z,68.42
2022-10-05T22:03:25.692Z,68.59
2022-10-05T22:05:52.395Z,68.90
2022-10-05T22:08:24.706Z,68.72
2022-10-05T22:10:52.922Z,68.95
2022-10-05T22:13:19.830Z,68.96
2022-10-05T22:15:46.455Z,69.02
2022-10-05T22:18:15.899Z,68.99
2022-10-05T22:20:42.943Z,68.95
2022-10-05T22:23:09.477Z,69.03
2022-10-05T22:25:36.172Z,69.31
2022-10-05T22:28:02.908Z,69.52
2022-10-05T22:30:29.521Z,69.36
2022-10-05T22:32:56.277Z,69.61
2022-10-05T22:35:22.884Z,69.70
2022-10-05T22:37:49.403Z,69.89
2022-10-05T22:40:16.289Z,69.75
2022-10-05T22:42:43.271Z,69.72
2022-10-05T22:45:09.734Z,69.95
2022-10-05T22:47:36.358Z,69.77
2022-10-05T22:50:03.458Z,70.14
2022-10-05T22:52:29.905Z,70.11
2022-10-05T22:54:56.830Z,70.13
2022-10-05T22:57:23.665Z,70.19
2022-10-05T22:59:50.169Z,70.08
2022-10-05T23:02:18.808Z,69.98
2022-10-05T23:04:46.160Z,69.92
2022-10-05T23:07:12.604Z,70.06
2022-10-05T23:09:39.421Z,70.00
2022-10-05T23:12:06.151Z,69.84
2022-10-05T23:14:33.401Z,69.85
2022-10-05T23:17:00.432Z,69.73
2022-10-05T23:19:26.990Z,69.63
2022-10-05T23:21:53.626Z,69.40
2022-10-05T23:24:20.570Z,69.53
2022-10-05T23:26:47.027Z,69.43
2022-10-05T23:29:13.525Z,69.37
2022-10-05T23:31:40.790Z,69.28
2022-10-05T23:34:07.427Z,69.32
2022-10-05T23:36:33.918Z,69.19
2022-10-05T23:39:01.001Z,69.28
2022-10-05T23:41:27.509Z,69.06
2022-10-05T23:43:55.391Z,69.03
2022-10-05T23:46:22.588Z,68.93
2022-10-05T23:48:50.536Z,68.99
2022-10-05T23:51:17.063Z,68.87
2022-10-05T23:53:44.224Z,68.86
2022-10-05T23:56:10.690Z,68.66
2022-10-05T23:58:37.337Z,68.72
